createdAt,value
2023-05-19T00:01:20.872Z,12.47
2023-05-19T00:04:02.891Z,12.46
2023-05-19T00:06:32.446Z,12.46
2023-05-19T00:09:04.592Z,12.46
2023-05-19T00:11:31.895Z,12.44
2023-05-19T00:14:00.420Z,12.38
2023-05-19T00:16:29.619Z,12.32
2023-05-19T00:19:00.314Z,12.34
2023-05-19T00:21:28.283Z,12.30
2023-05-19T00:23:55.737Z,12.28
2023-05-19T00:26:23.153Z,12.18
2023-05-19T00:28:56.471Z,12.15
2023-05-19T00:31:23.799Z,12.06
2023-05-19T00:33:52.017Z,12.10
2023-05-19T00:36:19.015Z,12.10
2023-05-19T00:38:45.961Z,12.11
2023-05-19T00:41:12.965Z,12.00
2023-05-19T00:43:39.985Z,11.94
2023-05-19T00:46:07.555Z,11.95
2023-05-19T00:48:34.592Z,11.91
2023-05-19T00:51:04.490Z,11.94
2023-05-19T00:53:35.603Z,11.89
2023-05-19T00:56:03.373Z,11.90
2023-05-19T00:58:32.595Z,11.96
2023-05-19T01:01:04.468Z,11.95
2023-05-19T01:03:35.211Z,11.95
2023-05-19T01:06:07.353Z,11.95
2023-05-19T01:08:37.075Z,11.93
2023-05-19T01:11:08.015Z,11.95
2023-05-19T01:13:36.381Z,11.94
2023-05-19T01:16:37.411Z,11.92
2023-05-19T01:20:02.206Z,11.89
2023-05-19T01:23:05.440Z,11.86
2023-05-19T01:26:31.118Z,11.84
2023-05-19T01:29:37.572Z,11.79
2023-05-19T01:32:07.151Z,11.76
2023-05-19T01:34:44.067Z,11.78
2023-05-19T01:37:13.276Z,11.82
2023-05-19T01:39:41.588Z,11.85
2023-05-19T01:42:09.173Z,11.88
2023-05-19T01:44:36.515Z,11.88
2023-05-19T01:47:05.683Z,11.86
2023-05-19T01:49:32.628Z,11.83
2023-05-19T01:51:59.570Z,11.83
2023-05-19T01:54:26.503Z,11.80
2023-05-19T01:57:11.675Z,11.71
2023-05-19T02:00:13.540Z,11.66
2023-05-19T02:03:10.904Z,11.67
2023-05-19T02:05:53.633Z,11.65
2023-05-19T02:08:43.479Z,11.62
2023-05-19T02:11:25.645Z,11.57
2023-05-19T02:13:56.977Z,11.55
2023-05-19T02:16:29.106Z,11.53
2023-05-19T02:18:57.286Z,11.54
2023-05-19T02:21:24.345Z,11.52
2023-05-19T02:23:51.401Z,11.52
2023-05-19T02:26:20.158Z,11.54
2023-05-19T02:28:47.121Z,11.55
2023-05-19T02:31:14.040Z,11.59
2023-05-19T02:33:41.496Z,11.60
2023-05-19T02:36:09.897Z,11.60
2023-05-19T02:38:36.932Z,11.60
2023-05-19T02:41:03.880Z,11.61
2023-05-19T02:43:31.078Z,11.53
2023-05-19T02:45:58.049Z,11.61
2023-05-19T02:48:26.699Z,11.63
2023-05-19T02:50:53.640Z,11.62
2023-05-19T02:53:20.588Z,11.62
2023-05-19T02:55:47.568Z,11.62
2023-05-19T02:58:14.537Z,11.61
2023-05-19T03:00:41.498Z,11.60
2023-05-19T03:03:10.455Z,11.61
2023-05-19T03:05:37.478Z,11.61
2023-05-19T03:08:04.578Z,11.60
2023-05-19T03:10:31.740Z,11.61
2023-05-19T03:12:58.817Z,11.61
2023-05-19T03:15:25.738Z,11.60
2023-05-19T03:17:52.825Z,11.60
2023-05-19T03:20:19.905Z,11.61
2023-05-19T03:22:46.899Z,11.61
2023-05-19T03:25:14.003Z,11.62
2023-05-19T03:27:41.333Z,11.64
2023-05-19T03:30:09.250Z,11.63
2023-05-19T03:32:47.228Z,11.63
2023-05-19T03:35:14.537Z,11.64
2023-05-19T03:37:41.497Z,11.64
2023-05-19T03:40:09.274Z,11.59
2023-05-19T03:42:38.137Z,11.64
2023-05-19T03:45:06.597Z,11.66
2023-05-19T03:47:33.641Z,11.65
2023-05-19T03:50:12.046Z,11.67
2023-05-19T03:53:04.933Z,11.68
2023-05-19T03:55:40.283Z,11.66
2023-05-19T03:58:07.218Z,11.72
2023-05-19T04:00:36.613Z,11.73
2023-05-19T04:03:03.620Z,11.85
2023-05-19T04:05:30.624Z,12.00
2023-05-19T04:07:57.588Z,12.22
2023-05-19T04:10:24.589Z,12.49
2023-05-19T04:12:51.547Z,12.75
2023-05-19T04:15:18.468Z,12.93
2023-05-19T04:17:46.150Z,13.04
2023-05-19T04:20:13.524Z,13.08
2023-05-19T04:22:40.452Z,13.05
2023-05-19T04:25:08.222Z,13.00
2023-05-19T04:27:38.771Z,13.04
2023-05-19T04:30:07.038Z,13.19
2023-05-19T04:32:34.731Z,13.29
2023-05-19T04:35:03.222Z,13.28
2023-05-19T04:37:30.222Z,13.27
2023-05-19T04:39:58.059Z,13.25
2023-05-19T04:42:30.610Z,13.22
2023-05-19T04:44:58.208Z,13.21
2023-05-19T04:47:28.251Z,13.19
2023-05-19T04:50:00.776Z,13.20
2023-05-19T04:52:27.802Z,13.25
2023-05-19T04:54:54.820Z,13.25
2023-05-19T04:57:24.013Z,13.34
2023-05-19T04:59:51.146Z,13.40
2023-05-19T05:02:18.370Z,13.42
2023-05-19T05:04:46.533Z,13.43
2023-05-19T05:07:13.727Z,13.47
2023-05-19T05:09:40.712Z,13.51
2023-05-19T05:12:09.072Z,13.60
2023-05-19T05:14:40.109Z,13.65
2023-05-19T05:17:08.017Z,13.78
2023-05-19T05:19:35.548Z,13.88
2023-05-19T05:22:02.849Z,13.89
2023-05-19T05:24:30.696Z,13.94
2023-05-19T05:26:59.823Z,14.02
2023-05-19T05:29:26.822Z,14.01
2023-05-19T05:31:54.402Z,14.05
2023-05-19T05:34:22.401Z,14.10
2023-05-19T05:36:50.167Z,14.18
2023-05-19T05:39:18.273Z,14.27
2023-05-19T05:41:45.826Z,14.35
2023-05-19T05:44:13.236Z,14.39
2023-05-19T05:46:42.748Z,14.43
2023-05-19T05:49:12.433Z,14.50
2023-05-19T05:51:48.425Z,14.50
2023-05-19T05:54:23.055Z,14.52
2023-05-19T05:56:51.186Z,14.57
2023-05-19T05:59:18.212Z,14.76
2023-05-19T06:01:45.505Z,14.86
2023-05-19T06:04:12.574Z,14.97
2023-05-19T06:06:39.551Z,15.08
2023-05-19T06:09:06.520Z,15.17
2023-05-19T06:11:33.583Z,15.24
2023-05-19T06:14:00.809Z,15.30
2023-05-19T06:16:51.718Z,15.37
2023-05-19T06:19:22.794Z,15.44
2023-05-19T06:21:49.804Z,15.52
2023-05-19T06:24:16.904Z,15.60
2023-05-19T06:26:43.858Z,15.69
2023-05-19T06:29:11.388Z,15.82
2023-05-19T06:31:38.412Z,15.90
2023-05-19T06:34:12.396Z,15.93
2023-05-19T06:36:41.342Z,15.92
2023-05-19T06:39:08.831Z,16.00
2023-05-19T06:41:36.395Z,16.06
2023-05-19T06:44:06.563Z,16.06
2023-05-19T06:46:34.032Z,16.12
2023-05-19T06:49:01.339Z,16.10
2023-05-19T06:51:32.067Z,16.24
2023-05-19T06:54:00.223Z,16.37
2023-05-19T06:56:27.844Z,16.45
2023-05-19T06:58:56.021Z,16.54
2023-05-19T07:01:27.844Z,16.62
2023-05-19T07:03:56.147Z,16.67
2023-05-19T07:06:23.219Z,16.83
2023-05-19T07:08:51.269Z,16.97
2023-05-19T07:11:19.104Z,17.13
2023-05-19T07:13:47.689Z,17.25
2023-05-19T07:16:20.772Z,17.39
2023-05-19T07:18:47.763Z,17.43
2023-05-19T07:21:14.734Z,17.49
2023-05-19T07:23:41.635Z,17.56
2023-05-19T07:26:08.594Z,17.66
2023-05-19T07:28:35.676Z,17.78
2023-05-19T07:31:02.729Z,17.80
2023-05-19T07:33:29.640Z,17.92
2023-05-19T07:35:56.675Z,18.04
2023-05-19T07:38:23.607Z,18.17
2023-05-19T07:40:50.565Z,18.32
2023-05-19T07:43:18.108Z,18.40
2023-05-19T07:45:45.060Z,18.52
2023-05-19T07:48:12.087Z,18.64
2023-05-19T07:50:39.039Z,18.74
2023-05-19T07:53:06.039Z,18.78
2023-05-19T07:55:32.992Z,18.98
2023-05-19T07:57:59.940Z,19.09
2023-05-19T08:00:26.997Z,19.15
2023-05-19T08:02:54.035Z,19.26
2023-05-19T08:05:21.046Z,19.29
2023-05-19T08:07:47.954Z,19.38
2023-05-19T08:10:15.018Z,19.50
2023-05-19T08:12:41.951Z,19.53
2023-05-19T08:15:11.544Z,19.53
2023-05-19T08:17:38.533Z,19.53
2023-05-19T08:20:08.634Z,19.59
2023-05-19T08:22:35.915Z,19.74
2023-05-19T08:25:06.055Z,19.88
2023-05-19T08:27:34.216Z,20.02
2023-05-19T08:30:01.238Z,20.15
2023-05-19T08:32:28.221Z,20.27
2023-05-19T08:34:55.176Z,20.38
2023-05-19T08:37:22.163Z,20.46
2023-05-19T08:39:49.078Z,20.59
2023-05-19T08:42:16.039Z,20.69
2023-05-19T08:44:43.994Z,20.73
2023-05-19T08:47:14.219Z,20.74
2023-05-19T08:49:47.917Z,20.74
2023-05-19T08:52:50.276Z,20.82
2023-05-19T08:55:37.787Z,20.86
2023-05-19T08:58:05.031Z,20.91
2023-05-19T09:00:33.119Z,21.01
2023-05-19T09:05:33.963Z,21.14
2023-05-19T09:08:02.783Z,21.16
2023-05-19T09:10:29.802Z,21.18
2023-05-19T09:12:56.817Z,21.22
2023-05-19T09:15:31.813Z,21.24
2023-05-19T09:18:14.323Z,21.33
2023-05-19T09:20:44.300Z,21.45
2023-05-19T09:23:16.312Z,21.52
2023-05-19T09:25:53.454Z,21.57
2023-05-19T09:28:33.094Z,21.62
2023-05-19T09:31:09.574Z,21.69
2023-05-19T09:33:40.624Z,21.72
2023-05-19T09:36:10.736Z,21.75
2023-05-19T09:38:39.823Z,21.84
2023-05-19T09:41:09.127Z,21.89
2023-05-19T09:43:36.794Z,22.03
2023-05-19T09:46:14.678Z,22.05
2023-05-19T09:48:42.434Z,22.11
2023-05-19T09:51:12.514Z,22.16
2023-05-19T09:53:39.829Z,22.19
2023-05-19T09:56:08.808Z,22.24
2023-05-19T09:58:36.537Z,22.27
2023-05-19T10:01:04.664Z,22.29
2023-05-19T10:03:34.503Z,22.33
2023-05-19T10:06:02.718Z,22.35
2023-05-19T10:08:30.650Z,22.36
2023-05-19T10:10:58.439Z,22.35
2023-05-19T10:13:26.474Z,22.37
2023-05-19T10:15:58.718Z,22.41
2023-05-19T10:18:27.723Z,22.47
2023-05-19T10:20:54.913Z,22.51
2023-05-19T10:23:22.441Z,22.58
2023-05-19T10:25:51.679Z,22.56
2023-05-19T10:28:21.332Z,22.52
2023-05-19T10:30:51.718Z,22.48
2023-05-19T10:33:23.047Z,22.41
2023-05-19T10:36:25.757Z,22.40
2023-05-19T10:39:03.408Z,22.48
2023-05-19T10:42:14.822Z,22.44
2023-05-19T10:45:18.875Z,22.40
2023-05-19T10:47:46.257Z,22.39
2023-05-19T10:50:13.334Z,22.41
2023-05-19T10:52:40.923Z,22.48
2023-05-19T10:55:10.108Z,22.58
2023-05-19T10:57:37.171Z,22.74
2023-05-19T11:00:29.457Z,22.89
2023-05-19T11:03:18.520Z,22.96
2023-05-19T11:05:46.427Z,22.94
2023-05-19T11:08:13.476Z,23.02
2023-05-19T11:10:44.933Z,23.06
2023-05-19T11:13:22.683Z,23.15
2023-05-19T11:15:50.133Z,23.18
2023-05-19T11:18:17.169Z,23.07
2023-05-19T11:20:44.619Z,22.93
2023-05-19T11:23:18.493Z,22.92
2023-05-19T11:25:48.500Z,22.97
2023-05-19T11:28:20.911Z,23.04
2023-05-19T11:30:51.872Z,23.06
2023-05-19T11:33:20.640Z,23.14
2023-05-19T11:35:50.581Z,23.13
2023-05-19T11:38:19.721Z,23.19
2023-05-19T11:40:49.656Z,23.24
2023-05-19T11:43:16.723Z,23.36
2023-05-19T11:45:44.168Z,23.42
2023-05-19T11:48:15.979Z,23.55
2023-05-19T11:50:44.072Z,23.59
2023-05-19T11:53:16.423Z,23.59
2023-05-19T11:55:46.805Z,23.58
2023-05-19T11:58:14.162Z,23.59
2023-05-19T12:00:43.203Z,23.61
2023-05-19T12:03:10.757Z,23.64
2023-05-19T12:05:44.752Z,23.63
2023-05-19T12:08:12.550Z,23.60
2023-05-19T12:10:40.687Z,23.61
2023-05-19T12:13:11.013Z,23.63
2023-05-19T12:15:39.492Z,23.61
2023-05-19T12:18:07.550Z,23.60
2023-05-19T12:20:36.029Z,23.60
2023-05-19T12:23:03.909Z,23.57
2023-05-19T12:25:31.952Z,23.56
2023-05-19T12:28:00.675Z,23.58
2023-05-19T12:30:29.528Z,23.59
2023-05-19T12:33:00.543Z,23.62
2023-05-19T12:35:35.987Z,23.59
2023-05-19T12:38:06.710Z,23.68
2023-05-19T12:40:35.786Z,23.81
2023-05-19T12:43:03.962Z,23.92
2023-05-19T12:45:38.404Z,23.99
2023-05-19T12:48:16.094Z,24.14
2023-05-19T12:50:47.453Z,24.22
2023-05-19T12:53:17.557Z,24.27
2023-05-19T12:55:45.830Z,24.43
2023-05-19T12:58:13.266Z,24.36
2023-05-19T13:00:46.380Z,24.30
2023-05-19T13:03:19.422Z,24.31
2023-05-19T13:05:49.007Z,24.23
2023-05-19T13:08:19.177Z,24.20
2023-05-19T13:10:47.792Z,24.17
2023-05-19T13:13:15.084Z,24.13
2023-05-19T13:15:44.568Z,24.04
2023-05-19T13:18:13.160Z,23.93
2023-05-19T13:20:44.404Z,23.91
2023-05-19T13:23:12.025Z,23.88
2023-05-19T13:25:39.064Z,23.80
2023-05-19T13:28:06.708Z,23.76
2023-05-19T13:30:35.637Z,23.81
2023-05-19T13:33:03.186Z,23.85
2023-05-19T13:35:36.730Z,23.92
2023-05-19T13:38:09.810Z,24.00
2023-05-19T13:40:37.704Z,24.02
2023-05-19T13:43:05.159Z,23.94
2023-05-19T13:45:32.178Z,23.88
2023-05-19T13:47:59.399Z,23.89
2023-05-19T13:50:26.482Z,23.81
2023-05-19T13:52:53.870Z,23.88
2023-05-19T13:55:20.967Z,23.88
2023-05-19T13:57:47.976Z,23.86
2023-05-19T14:00:15.537Z,23.83
2023-05-19T14:02:43.030Z,23.77
2023-05-19T14:05:10.158Z,23.73
2023-05-19T14:07:37.135Z,23.76
2023-05-19T14:10:06.687Z,23.80
2023-05-19T14:12:51.784Z,23.77
2023-05-19T14:15:22.679Z,23.82
2023-05-19T14:17:49.634Z,23.79
2023-05-19T14:20:16.580Z,23.75
2023-05-19T14:22:43.469Z,23.60
2023-05-19T14:25:10.573Z,23.50
2023-05-19T14:27:39.685Z,23.47
2023-05-19T14:30:07.795Z,23.23
2023-05-19T14:32:34.819Z,23.22
2023-05-19T14:35:01.935Z,23.16
2023-05-19T14:37:28.983Z,23.17
2023-05-19T14:40:00.043Z,23.15
2023-05-19T14:42:26.985Z,23.15
2023-05-19T14:44:53.904Z,23.06
2023-05-19T14:47:20.911Z,23.10
2023-05-19T14:49:47.818Z,23.16
2023-05-19T14:52:14.753Z,23.18
2023-05-19T14:54:41.675Z,23.24
2023-05-19T14:57:08.620Z,23.26
2023-05-19T14:59:38.607Z,23.27
2023-05-19T15:02:06.060Z,23.30
2023-05-19T15:04:33.020Z,23.31
2023-05-19T15:07:09.694Z,23.33
2023-05-19T15:09:37.664Z,23.32
2023-05-19T15:12:04.589Z,23.25
2023-05-19T15:14:31.613Z,23.17
2023-05-19T15:16:59.422Z,23.19
2023-05-19T15:19:26.707Z,23.16
2023-05-19T15:21:53.988Z,23.03
2023-05-19T15:24:20.881Z,22.97
2023-05-19T15:26:47.965Z,22.91
2023-05-19T15:29:15.025Z,22.80
2023-05-19T15:31:42.086Z,22.73
2023-05-19T15:34:09.188Z,22.73
2023-05-19T15:36:36.079Z,22.75
2023-05-19T15:39:03.750Z,22.71
2023-05-19T15:41:30.733Z,22.85
2023-05-19T15:44:00.094Z,22.87
2023-05-19T15:46:27.364Z,22.91
2023-05-19T15:48:54.412Z,22.91
2023-05-19T15:51:21.467Z,22.78
2023-05-19T15:53:48.453Z,22.72
2023-05-19T15:56:15.398Z,22.60
2023-05-19T15:58:42.411Z,22.53
2023-05-19T16:01:09.596Z,22.48
2023-05-19T16:03:36.688Z,22.49
2023-05-19T16:06:04.183Z,22.51
2023-05-19T16:08:31.277Z,22.52
2023-05-19T16:10:58.213Z,22.53
2023-05-19T16:13:25.127Z,22.52
2023-05-19T16:15:52.615Z,22.51
2023-05-19T16:18:19.691Z,22.49
2023-05-19T16:20:46.620Z,22.42
2023-05-19T16:23:13.513Z,22.29
2023-05-19T16:25:41.403Z,22.15
2023-05-19T16:28:08.405Z,22.07
2023-05-19T16:30:35.741Z,22.08
2023-05-19T16:33:02.873Z,22.07
2023-05-19T16:35:29.919Z,22.09
2023-05-19T16:37:56.873Z,22.09
2023-05-19T16:40:23.919Z,22.16
2023-05-19T16:42:53.310Z,22.09
2023-05-19T16:45:20.464Z,22.08
2023-05-19T16:47:47.479Z,22.14
2023-05-19T16:50:14.555Z,22.24
2023-05-19T16:52:41.539Z,22.38
2023-05-19T16:55:08.930Z,22.56
2023-05-19T16:57:35.860Z,22.72
2023-05-19T17:00:03.656Z,22.77
2023-05-19T17:02:30.772Z,22.76
2023-05-19T17:04:57.811Z,22.82
2023-05-19T17:07:24.751Z,22.85
2023-05-19T17:09:53.076Z,22.88
2023-05-19T17:12:21.378Z,22.78
2023-05-19T17:14:50.279Z,22.76
2023-05-19T17:17:17.212Z,22.72
2023-05-19T17:19:44.164Z,22.66
2023-05-19T17:22:11.188Z,22.66
2023-05-19T17:24:38.132Z,22.63
2023-05-19T17:27:05.224Z,22.52
2023-05-19T17:29:32.190Z,22.38
2023-05-19T17:31:59.169Z,22.28
2023-05-19T17:34:26.195Z,22.21
2023-05-19T17:36:53.101Z,22.14
2023-05-19T17:39:20.294Z,22.10
2023-05-19T17:41:47.297Z,22.09
2023-05-19T17:44:14.909Z,22.10
2023-05-19T17:46:41.868Z,21.98
2023-05-19T17:49:10.539Z,21.75
2023-05-19T17:51:37.712Z,21.47
2023-05-19T17:54:05.492Z,21.19
2023-05-19T17:56:34.383Z,20.90
2023-05-19T17:59:01.495Z,20.73
2023-05-19T18:01:28.645Z,20.65
2023-05-19T18:03:55.976Z,20.58
2023-05-19T18:06:25.469Z,20.55
2023-05-19T18:08:54.563Z,20.49
2023-05-19T18:11:21.787Z,20.48
2023-05-19T18:13:48.959Z,20.42
2023-05-19T18:16:15.936Z,20.36
2023-05-19T18:18:44.537Z,20.37
2023-05-19T18:21:14.283Z,20.29
2023-05-19T18:23:41.636Z,20.23
2023-05-19T18:26:08.607Z,20.14
2023-05-19T18:28:35.528Z,20.07
2023-05-19T18:31:05.353Z,20.05
2023-05-19T18:33:32.718Z,20.03
2023-05-19T18:35:59.762Z,19.99
2023-05-19T18:38:26.777Z,19.90
2023-05-19T18:40:53.899Z,19.81
2023-05-19T18:43:20.942Z,19.73
2023-05-19T18:45:47.979Z,19.69
2023-05-19T18:48:15.649Z,19.70
2023-05-19T18:50:44.557Z,19.67
2023-05-19T18:53:12.105Z,19.60
2023-05-19T18:55:39.052Z,19.51
2023-05-19T18:58:06.228Z,19.40
2023-05-19T19:00:35.582Z,19.33
2023-05-19T19:03:02.830Z,19.30
2023-05-19T19:05:30.185Z,19.26
2023-05-19T19:07:57.517Z,19.15
2023-05-19T19:10:24.498Z,19.14
2023-05-19T19:12:51.429Z,19.12
2023-05-19T19:15:18.330Z,19.11
2023-05-19T19:17:45.638Z,19.05
2023-05-19T19:20:13.045Z,18.95
2023-05-19T19:22:40.042Z,18.88
2023-05-19T19:25:07.280Z,18.76
2023-05-19T19:27:35.594Z,18.74
2023-05-19T19:30:02.628Z,18.71
2023-05-19T19:32:31.394Z,18.74
2023-05-19T19:34:58.616Z,18.72
2023-05-19T19:37:25.719Z,18.76
2023-05-19T19:39:52.668Z,18.79
2023-05-19T19:42:19.582Z,18.80
2023-05-19T19:44:46.567Z,18.72
2023-05-19T19:47:13.530Z,18.58
2023-05-19T19:49:40.649Z,18.50
2023-05-19T19:52:07.582Z,18.47
2023-05-19T19:54:34.545Z,18.45
2023-05-19T19:57:01.603Z,18.43
2023-05-19T19:59:28.521Z,18.40
2023-05-19T20:01:55.592Z,18.38
2023-05-19T20:04:22.748Z,18.36
2023-05-19T20:06:49.908Z,18.31
2023-05-19T20:09:17.058Z,18.28
2023-05-19T20:11:44.020Z,18.22
2023-05-19T20:14:11.124Z,18.18
2023-05-19T20:16:38.098Z,18.10
2023-05-19T20:19:06.710Z,17.98
2023-05-19T20:21:34.663Z,17.83
2023-05-19T20:24:01.606Z,17.76
2023-05-19T20:26:29.308Z,17.69
2023-05-19T20:28:56.323Z,17.59
2023-05-19T20:31:24.677Z,17.39
2023-05-19T20:33:52.047Z,17.16
2023-05-19T20:36:19.003Z,17.03
2023-05-19T20:38:47.851Z,16.95
2023-05-19T20:41:15.205Z,16.84
2023-05-19T20:43:42.367Z,16.83
2023-05-19T20:46:09.467Z,16.86
2023-05-19T20:48:36.411Z,16.88
2023-05-19T20:51:03.353Z,16.98
2023-05-19T20:53:30.453Z,17.00
2023-05-19T20:55:57.394Z,17.00
2023-05-19T20:58:26.657Z,17.00
2023-05-19T21:00:57.537Z,16.98
2023-05-19T21:03:27.035Z,16.95
2023-05-19T21:05:54.931Z,16.88
2023-05-19T21:08:22.319Z,16.82
2023-05-19T21:10:49.241Z,16.78
2023-05-19T21:13:16.221Z,16.72
2023-05-19T21:15:43.127Z,16.68
2023-05-19T21:18:12.508Z,16.62
2023-05-19T21:20:39.828Z,16.56
2023-05-19T21:23:06.785Z,16.51
2023-05-19T21:25:33.727Z,16.45
2023-05-19T21:28:01.013Z,16.39
2023-05-19T21:30:28.103Z,16.39
2023-05-19T21:32:55.069Z,16.37
2023-05-19T21:35:22.048Z,16.32
2023-05-19T21:37:48.942Z,16.29
2023-05-19T21:40:16.076Z,16.25
2023-05-19T21:42:43.000Z,16.17
2023-05-19T21:45:10.465Z,16.06
2023-05-19T21:47:37.389Z,16.04
2023-05-19T21:50:04.529Z,16.00
2023-05-19T21:52:31.503Z,16.04
2023-05-19T21:54:58.467Z,16.04
2023-05-19T21:57:25.440Z,15.96
2023-05-19T21:59:52.444Z,15.94
2023-05-19T22:02:19.386Z,15.91
2023-05-19T22:04:46.371Z,15.89
2023-05-19T22:07:13.343Z,15.87
2023-05-19T22:09:40.276Z,15.86
2023-05-19T22:12:07.833Z,15.89
2023-05-19T22:14:35.731Z,15.89
2023-05-19T22:17:02.701Z,15.91
2023-05-19T22:19:29.802Z,15.93
2023-05-19T22:22:06.005Z,15.94
2023-05-19T22:24:40.485Z,15.95
2023-05-19T22:27:08.353Z,15.90
2023-05-19T22:29:38.360Z,15.92
2023-05-19T22:32:11.813Z,15.91
2023-05-19T22:34:39.281Z,15.84
2023-05-19T22:37:06.346Z,15.78
2023-05-19T22:39:33.310Z,15.76
2023-05-19T22:42:00.216Z,15.65
2023-05-19T22:44:27.230Z,15.53
2023-05-19T22:46:54.222Z,15.46
2023-05-19T22:49:22.933Z,15.42
2023-05-19T22:51:50.450Z,15.44
2023-05-19T22:54:17.559Z,15.45
2023-05-19T22:56:46.354Z,15.47
2023-05-19T22:59:13.472Z,15.49
2023-05-19T23:01:40.663Z,15.50
2023-05-19T23:04:07.621Z,15.47
2023-05-19T23:06:34.522Z,15.38
2023-05-19T23:09:03.209Z,15.37
2023-05-19T23:11:30.265Z,15.32
2023-05-19T23:13:57.220Z,15.31
2023-05-19T23:16:24.153Z,15.29
2023-05-19T23:18:51.109Z,15.27
2023-05-19T23:21:18.071Z,15.25
2023-05-19T23:23:44.995Z,15.25
2023-05-19T23:26:13.449Z,15.24
2023-05-19T23:28:42.406Z,15.25
2023-05-19T23:31:09.821Z,15.25
2023-05-19T23:33:36.902Z,15.24
2023-05-19T23:36:09.285Z,15.23
2023-05-19T23:38:37.243Z,15.23
2023-05-19T23:41:05.048Z,15.21
2023-05-19T23:43:34.861Z,15.19
2023-05-19T23:46:01.937Z,15.15
2023-05-19T23:48:29.345Z,15.15
2023-05-19T23:50:58.055Z,15.12
2023-05-19T23:53:25.195Z,15.09
2023-05-19T23:55:52.137Z,15.06
2023-05-19T23:58:19.161Z,15.02
